Taylor, TX (76574)

7:52 AM CST on November 24, 2014 (GMT -0600)
Central Taylor | Change Station
CLOSE
Current Station
Personal Weather Station
Location: Taylor, TX
Elevation: 582 ft
Nearby Weather Stations

Elev 582 ft 30.57 °N, 97.42 °W | Updated 6 seconds ago

Clear
Clear
46.2 °F
Feels Like 46 °F
N
1.1
Wind Variable Wind from WNW
Gusts 3.4 mph

Today
High -- | Low -- °F
--% Chance of Precip.
Yesterday
High -- | Low -- °F
Precip. -- in
7:03 AM 5:29 PM
Waxing Crescent, 5% visible
Pressure 30.03 in
Visibility 10.0 miles
Clouds Clear
Windchill 46 °F
Dew Point 41 °F
Humidity 81%
Rainfall 0.00 in
Snow Depth Not available.
UV 0 out of 12
Pollen 5.30 out of 12
Air Quality Not available.
Flu Activity Not available.
METAR KEDC 241335Z AUTO 32007KT 10SM CLR 08/03 A3003 RMK AO2

More Conditions Fewer Conditions

Pressure 30.03 in
Visibility 10.0 miles
Clouds Clear
Windchill 46 °F
Dew Point 41 °F
Humidity 81%
Rainfall 0.00 in
Snow Depth Not available.
UV 0 out of 12
Pollen 5.30 out of 12
Air Quality Not available.
Flu Activity Not available.
METAR KEDC 241335Z AUTO 32007KT 10SM CLR 08/03 A3003 RMK AO2

More Conditions Fewer Conditions

10-Day Weather Forecast

Almanac

Astronomy

Nov. 24, 2014 Rise Set
Actual Time
Civil Twilight
Nautical Twilight
Astronomical Twilight
Moon
Length of Visible Light
Length of Day
Tomorrow will be .
, % of the Moon is Illuminated

Today's Extremes

State Highs State Lows

Community

WunderPhotos

Upload Photos

1,773,332 photos uploaded!

WunderBlogs® & News

Nearby

Air Quality

  Air Quality AQ Index Pollutant
Not available.

Snow Depth

Station Depth Elevation

Earthquake Activity

City Distance Mag. Time & Date
Minimum magnitude displayed is 2.5.

Coastal Water Temperatures

Place Temperature

Nearby Weather Stations